Time;durP1;ratioP1;P1;durP2;ratioP2;P2;SDS_P1;SDS_P2;PMS_P1;PMS_P2;Temp;Humidity;BMP_temperature;BMP_pressure;BME280_temperature;BME280_humidity;BME280_pressure;Samples;Min_cycle;Max_cycle;Signal;HPM_P1;HPM_P2
2022/05/31 00:00:20;;;;;;;;;;;10.20;99.90;;;;;;4982943;28;39186;-50
2022/05/31 00:02:47;;;;;;;;;;;10.20;99.90;;;;;;4984367;28;36469;-51
2022/05/31 00:05:14;;;;;;;;;;;10.20;99.90;;;;;;4984185;28;36234;-49
2022/05/31 00:07:42;;;;;;;;;;;10.20;99.90;;;;;;4983830;28;38600;-48
2022/05/31 00:10:10;;;;;;;;;;;10.20;99.90;;;;;;4984123;28;36757;-51
2022/05/31 00:12:37;;;;;;;;;;;10.30;99.90;;;;;;4983175;28;35027;-51
2022/05/31 00:15:08;;;;;;;;;;;10.30;99.90;;;;;;4982839;28;37267;-50
2022/05/31 00:17:35;;;;;;;;;;;10.30;99.90;;;;;;4982682;28;37424;-50
2022/05/31 00:20:02;;;;;;;;;;;10.30;99.90;;;;;;4983657;28;35651;-50
2022/05/31 00:22:32;;;;;;;;;;;10.30;99.90;;;;;;4982819;28;37516;-48
2022/05/31 00:24:59;;;;;;;;;;;10.30;99.90;;;;;;4982758;28;37657;-50
2022/05/31 00:27:28;;;;;;;;;;;10.20;99.90;;;;;;4980991;28;37620;-50
2022/05/31 00:29:55;;;;;;;;;;;10.20;99.90;;;;;;4983610;28;38074;-50
2022/05/31 00:32:25;;;;;;;;;;;10.10;99.90;;;;;;4982560;28;37791;-48
2022/05/31 00:34:53;;;;;;;;;;;10.20;99.90;;;;;;4983552;28;37538;-50
2022/05/31 00:37:20;;;;;;;;;;;10.10;99.90;;;;;;4982790;28;37723;-50
2022/05/31 00:39:47;;;;;;;;;;;10.10;99.90;;;;;;4982235;28;38693;-47
2022/05/31 00:42:16;;;;;;;;;;;10.00;99.90;;;;;;4982242;28;36422;-49
2022/05/31 00:44:44;;;;;;;;;;;10.00;99.90;;;;;;4983126;28;39201;-50
2022/05/31 00:47:13;;;;;;;;;;;10.00;99.90;;;;;;4983070;28;38656;-51
2022/05/31 00:49:43;;;;;;;;;;;10.00;99.90;;;;;;4982541;28;36694;-50
2022/05/31 00:52:12;;;;;;;;;;;10.00;99.90;;;;;;4983042;28;35083;-51
2022/05/31 00:54:42;;;;;;;;;;;10.00;99.90;;;;;;4983428;28;39454;-50
2022/05/31 00:57:09;;;;;;;;;;;10.00;99.90;;;;;;4982011;28;37376;-50
2022/05/31 00:59:38;;;;;;;;;;;10.10;99.90;;;;;;4982743;28;37238;-48
2022/05/31 01:02:05;;;;;;;;;;;10.00;99.90;;;;;;4982565;28;37393;-47
2022/05/31 01:04:34;;;;;;;;;;;10.00;99.90;;;;;;4982714;28;36545;-49
2022/05/31 01:07:02;;;;;;;;;;;10.00;99.90;;;;;;4982666;28;35948;-51
2022/05/31 01:09:29;;;;;;;;;;;10.00;99.90;;;;;;4983504;28;35666;-50
2022/05/31 01:11:57;;;;;;;;;;;10.00;99.90;;;;;;4983381;28;36164;-49
2022/05/31 01:14:24;;;;;;;;;;;10.00;99.90;;;;;;4983456;28;37627;-50
2022/05/31 01:16:55;;;;;;;;;;;9.90;99.90;;;;;;4982535;28;37046;-51
2022/05/31 01:22:08;;;;;;;;;;;10.00;99.90;;;;;;4981701;28;36468;-51
2022/05/31 01:24:39;;;;;;;;;;;10.00;99.90;;;;;;4982640;28;37591;-51
2022/05/31 01:27:10;;;;;;;;;;;10.00;99.90;;;;;;4981007;28;36959;-51
2022/05/31 01:29:39;;;;;;;;;;;10.00;99.90;;;;;;4982715;28;37075;-50
2022/05/31 01:32:07;;;;;;;;;;;10.00;99.90;;;;;;4981083;28;36551;-47
2022/05/31 01:34:37;;;;;;;;;;;10.00;99.90;;;;;;4980834;28;37948;-51
2022/05/31 01:37:05;;;;;;;;;;;10.00;99.90;;;;;;4981251;28;37361;-50
2022/05/31 01:39:37;;;;;;;;;;;10.00;99.90;;;;;;4982633;28;36704;-51
2022/05/31 01:42:06;;;;;;;;;;;9.90;99.90;;;;;;4981593;28;35990;-50
2022/05/31 01:44:35;;;;;;;;;;;9.80;99.90;;;;;;4982716;28;39492;-49
2022/05/31 01:47:02;;;;;;;;;;;9.80;99.90;;;;;;4982329;28;37870;-51
2022/05/31 01:49:31;;;;;;;;;;;9.80;99.90;;;;;;4981641;28;36769;-49
2022/05/31 01:51:59;;;;;;;;;;;9.80;99.90;;;;;;4981572;28;36180;-51
2022/05/31 01:54:26;;;;;;;;;;;9.80;99.90;;;;;;4982450;28;37280;-51
2022/05/31 01:56:57;;;;;;;;;;;9.90;99.90;;;;;;4982417;28;37689;-50
2022/05/31 01:59:25;;;;;;;;;;;9.90;99.90;;;;;;4982205;28;36929;-51
2022/05/31 02:01:53;;;;;;;;;;;10.00;99.90;;;;;;4982038;28;35022;-50
2022/05/31 02:04:21;;;;;;;;;;;9.90;99.90;;;;;;4981516;28;36574;-48
2022/05/31 02:07:10;;;;;;;;;;;10.00;99.90;;;;;;4981863;28;38664;-50
2022/05/31 02:09:35;;;;;;;;;;;9.90;99.90;;;;;;4979682;28;36712;-52
2022/05/31 02:12:06;;;;;;;;;;;10.00;99.90;;;;;;4981904;28;33746;-47
2022/05/31 02:14:33;;;;;;;;;;;10.00;99.90;;;;;;4980389;28;36424;-49
2022/05/31 02:17:00;;;;;;;;;;;10.00;99.90;;;;;;4979792;28;38179;-52
2022/05/31 02:19:28;;;;;;;;;;;10.00;99.90;;;;;;4981339;28;35443;-52
2022/05/31 02:21:55;;;;;;;;;;;10.00;99.90;;;;;;4982352;28;36557;-50
2022/05/31 02:24:24;;;;;;;;;;;10.00;99.90;;;;;;4979664;28;38357;-52
2022/05/31 02:26:51;;;;;;;;;;;10.00;99.90;;;;;;4979774;28;38589;-47
2022/05/31 02:29:20;;;;;;;;;;;10.00;99.90;;;;;;4980113;28;35523;-50
2022/05/31 02:31:47;;;;;;;;;;;10.00;99.90;;;;;;4981629;28;37821;-50
2022/05/31 02:34:15;;;;;;;;;;;10.10;99.90;;;;;;4981833;28;39640;-50
2022/05/31 02:36:42;;;;;;;;;;;10.00;99.90;;;;;;4980592;28;40953;-50
2022/05/31 02:39:09;;;;;;;;;;;10.10;99.90;;;;;;4981325;28;38439;-49
2022/05/31 02:41:37;;;;;;;;;;;10.00;99.90;;;;;;4981900;28;34993;-49
2022/05/31 02:44:04;;;;;;;;;;;10.10;99.90;;;;;;4980538;28;37431;-50
2022/05/31 02:46:33;;;;;;;;;;;10.00;99.90;;;;;;4981763;28;37312;-51
2022/05/31 02:49:01;;;;;;;;;;;10.10;99.90;;;;;;4980157;28;36910;-52
2022/05/31 02:51:28;;;;;;;;;;;10.10;99.90;;;;;;4981716;28;34813;-50
2022/05/31 02:53:57;;;;;;;;;;;10.10;99.90;;;;;;4979754;28;38760;-50
2022/05/31 02:56:24;;;;;;;;;;;10.10;99.90;;;;;;4980884;28;37179;-50
2022/05/31 02:58:51;;;;;;;;;;;10.10;99.90;;;;;;4981957;28;37769;-51
2022/05/31 03:01:19;;;;;;;;;;;10.20;99.90;;;;;;4981150;28;36001;-50
2022/05/31 03:03:47;;;;;;;;;;;10.10;99.90;;;;;;4980473;28;37905;-51
2022/05/31 03:06:14;;;;;;;;;;;10.20;99.90;;;;;;4981548;28;37417;-49
2022/05/31 03:08:41;;;;;;;;;;;10.10;99.90;;;;;;4981786;28;37165;-51
2022/05/31 03:11:10;;;;;;;;;;;10.10;99.90;;;;;;4981294;28;36580;-50
2022/05/31 03:13:37;;;;;;;;;;;10.10;99.90;;;;;;4982861;28;38315;-51
2022/05/31 03:16:05;;;;;;;;;;;10.10;99.90;;;;;;4984778;28;38265;-51
2022/05/31 03:18:34;;;;;;;;;;;10.10;99.90;;;;;;4984270;28;35523;-49
2022/05/31 03:21:06;;;;;;;;;;;10.20;99.90;;;;;;4984085;28;37005;-49
2022/05/31 03:23:34;;;;;;;;;;;10.10;99.90;;;;;;4982072;28;37823;-49
2022/05/31 03:26:04;;;;;;;;;;;10.10;99.90;;;;;;4982266;28;38957;-50
2022/05/31 03:28:32;;;;;;;;;;;10.10;99.90;;;;;;4984414;28;36215;-50
2022/05/31 03:31:01;;;;;;;;;;;10.10;99.90;;;;;;4985056;28;36411;-49
2022/05/31 03:33:28;;;;;;;;;;;10.10;99.90;;;;;;4983756;28;37819;-51
2022/05/31 03:35:56;;;;;;;;;;;10.10;99.90;;;;;;4983520;28;38130;-51
2022/05/31 03:38:24;;;;;;;;;;;10.20;99.90;;;;;;4984037;28;35629;-51
2022/05/31 03:40:57;;;;;;;;;;;10.20;99.90;;;;;;4984225;28;35055;-50
2022/05/31 03:43:24;;;;;;;;;;;10.20;99.90;;;;;;4982848;28;38358;-50
2022/05/31 03:45:51;;;;;;;;;;;10.10;99.90;;;;;;4984774;28;36268;-51
2022/05/31 03:48:18;;;;;;;;;;;10.20;99.90;;;;;;4983191;28;37009;-51
2022/05/31 03:50:46;;;;;;;;;;;10.20;99.90;;;;;;4985180;28;34831;-50
2022/05/31 03:53:14;;;;;;;;;;;10.20;99.90;;;;;;4981506;28;37744;-48
2022/05/31 03:55:44;;;;;;;;;;;10.20;99.90;;;;;;4982691;28;37882;-48
2022/05/31 03:58:11;;;;;;;;;;;10.20;99.90;;;;;;4984312;28;36554;-50
2022/05/31 04:00:38;;;;;;;;;;;10.20;99.90;;;;;;4984232;28;35905;-52
2022/05/31 04:03:05;;;;;;;;;;;10.20;99.90;;;;;;4980891;28;39080;-50
2022/05/31 04:05:33;;;;;;;;;;;10.20;99.90;;;;;;4983978;28;37178;-51
2022/05/31 04:08:02;;;;;;;;;;;10.20;99.90;;;;;;4983897;28;38081;-50
2022/05/31 04:10:30;;;;;;;;;;;10.20;99.90;;;;;;4983827;28;37754;-49
2022/05/31 04:12:59;;;;;;;;;;;10.20;99.90;;;;;;4982773;28;37572;-52
2022/05/31 04:15:26;;;;;;;;;;;10.20;99.90;;;;;;4983102;28;37395;-50
2022/05/31 04:17:53;;;;;;;;;;;10.20;99.90;;;;;;4983754;28;38937;-50
2022/05/31 04:20:20;;;;;;;;;;;10.20;99.90;;;;;;4983762;28;36340;-50
2022/05/31 04:22:47;;;;;;;;;;;10.20;99.90;;;;;;4982805;28;36566;-48
2022/05/31 04:25:14;;;;;;;;;;;10.20;99.90;;;;;;4981900;28;36925;-50
2022/05/31 04:27:41;;;;;;;;;;;10.20;99.90;;;;;;4982825;28;38044;-50
2022/05/31 04:30:10;;;;;;;;;;;10.30;99.90;;;;;;4983290;28;35463;-51
2022/05/31 04:32:37;;;;;;;;;;;10.30;99.90;;;;;;4983080;28;36495;-49
2022/05/31 04:35:04;;;;;;;;;;;10.30;99.90;;;;;;4983121;28;39577;-51
2022/05/31 04:37:31;;;;;;;;;;;10.30;99.90;;;;;;4982932;28;35613;-51
2022/05/31 04:39:58;;;;;;;;;;;10.30;99.90;;;;;;4983218;28;37481;-50
2022/05/31 04:42:25;;;;;;;;;;;10.40;99.90;;;;;;4983742;28;37562;-51
2022/05/31 04:44:53;;;;;;;;;;;10.40;99.90;;;;;;4983568;28;37793;-50
2022/05/31 04:47:21;;;;;;;;;;;10.40;99.90;;;;;;4983692;28;37977;-49
2022/05/31 04:49:48;;;;;;;;;;;10.40;99.90;;;;;;4983556;28;36211;-48
2022/05/31 04:52:15;;;;;;;;;;;10.50;99.90;;;;;;4983071;28;37846;-50
2022/05/31 04:54:42;;;;;;;;;;;10.50;99.90;;;;;;4981291;28;36265;-52
2022/05/31 04:57:09;;;;;;;;;;;10.50;99.90;;;;;;4983029;28;38432;-49
2022/05/31 04:59:36;;;;;;;;;;;10.50;99.90;;;;;;4982975;28;35169;-48
2022/05/31 05:02:03;;;;;;;;;;;10.50;99.90;;;;;;4982353;28;37947;-49
2022/05/31 05:04:32;;;;;;;;;;;10.50;99.90;;;;;;4982309;28;37575;-51
2022/05/31 05:06:59;;;;;;;;;;;10.60;99.90;;;;;;4982225;28;36655;-52
2022/05/31 05:09:26;;;;;;;;;;;10.60;99.90;;;;;;4981892;28;38277;-48
2022/05/31 05:11:53;;;;;;;;;;;10.60;99.90;;;;;;4982259;28;37584;-49
2022/05/31 05:14:20;;;;;;;;;;;10.70;99.90;;;;;;4983397;28;36764;-50
2022/05/31 05:16:47;;;;;;;;;;;10.70;99.90;;;;;;4981068;28;37430;-52
2022/05/31 05:19:14;;;;;;;;;;;10.70;99.90;;;;;;4982423;28;35767;-50
2022/05/31 05:21:42;;;;;;;;;;;10.70;99.90;;;;;;4981888;28;38646;-49
2022/05/31 05:24:10;;;;;;;;;;;10.80;99.90;;;;;;4981223;28;38064;-51
2022/05/31 05:26:37;;;;;;;;;;;10.80;99.90;;;;;;4980210;28;36864;-50
2022/05/31 05:31:52;;;;;;;;;;;10.80;99.90;;;;;;4980451;28;40331;-50
2022/05/31 05:34:20;;;;;;;;;;;10.80;99.90;;;;;;4979698;28;37501;-50
2022/05/31 05:36:48;;;;;;;;;;;10.90;99.90;;;;;;4981132;28;37435;-51
2022/05/31 05:39:15;;;;;;;;;;;10.90;99.90;;;;;;4980404;28;37705;-50
2022/05/31 05:41:42;;;;;;;;;;;10.90;99.90;;;;;;4979332;28;38645;-51
2022/05/31 05:44:10;;;;;;;;;;;10.90;99.90;;;;;;4980745;28;38011;-50
2022/05/31 05:46:37;;;;;;;;;;;10.90;99.90;;;;;;4980423;28;36468;-52
2022/05/31 05:49:04;;;;;;;;;;;10.90;99.90;;;;;;4981421;28;36810;-49
2022/05/31 05:51:32;;;;;;;;;;;11.00;99.90;;;;;;4981155;28;38811;-51
2022/05/31 05:54:02;;;;;;;;;;;11.00;99.90;;;;;;4979546;28;37855;-51
2022/05/31 05:56:30;;;;;;;;;;;11.00;99.90;;;;;;4981765;28;37585;-50
2022/05/31 05:58:57;;;;;;;;;;;11.00;99.90;;;;;;4983044;28;37620;-52
2022/05/31 06:01:27;;;;;;;;;;;11.00;99.90;;;;;;4980407;28;36715;-50
2022/05/31 06:03:56;;;;;;;;;;;11.10;99.90;;;;;;4980002;28;40010;-51
2022/05/31 06:06:24;;;;;;;;;;;11.10;99.90;;;;;;4979816;28;37023;-51
2022/05/31 06:08:54;;;;;;;;;;;11.10;99.90;;;;;;4980330;28;36696;-50
2022/05/31 06:11:25;;;;;;;;;;;11.10;99.90;;;;;;4979776;28;38612;-51
2022/05/31 06:13:53;;;;;;;;;;;11.20;99.90;;;;;;4980554;28;39274;-52
2022/05/31 06:16:22;;;;;;;;;;;11.20;99.90;;;;;;4979751;28;36464;-50
2022/05/31 06:18:51;;;;;;;;;;;11.20;99.90;;;;;;4980584;28;37350;-52
2022/05/31 06:21:21;;;;;;;;;;;11.20;99.90;;;;;;4980105;28;38654;-51
2022/05/31 06:23:49;;;;;;;;;;;11.30;99.90;;;;;;4979383;28;36165;-49
2022/05/31 06:26:16;;;;;;;;;;;11.30;99.90;;;;;;4979478;28;35662;-47
2022/05/31 06:28:46;;;;;;;;;;;11.40;99.90;;;;;;4979020;28;37195;-51
2022/05/31 06:31:13;;;;;;;;;;;11.40;99.90;;;;;;4979235;28;37428;-51
2022/05/31 06:33:40;;;;;;;;;;;11.50;99.90;;;;;;4980694;28;37777;-47
2022/05/31 06:36:07;;;;;;;;;;;11.50;99.90;;;;;;4980483;28;37067;-51
2022/05/31 06:38:34;;;;;;;;;;;11.50;99.90;;;;;;4979009;28;37008;-52
2022/05/31 06:41:02;;;;;;;;;;;11.50;99.90;;;;;;4979878;28;38360;-51
2022/05/31 06:43:29;;;;;;;;;;;11.60;99.90;;;;;;4980011;28;38924;-51
2022/05/31 06:45:57;;;;;;;;;;;11.60;99.90;;;;;;4981153;28;36845;-51
2022/05/31 06:48:25;;;;;;;;;;;11.60;99.90;;;;;;4983380;28;37036;-51
2022/05/31 06:50:52;;;;;;;;;;;11.60;99.90;;;;;;4983970;28;37565;-51
2022/05/31 06:58:56;;;;;;;;;;;11.80;99.90;;;;;;4982992;28;37836;-51
2022/05/31 07:01:30;;;;;;;;;;;11.80;99.90;;;;;;4982738;28;37756;-52
2022/05/31 07:03:59;;;;;;;;;;;11.80;99.90;;;;;;4982298;28;37646;-52
2022/05/31 07:06:26;;;;;;;;;;;11.80;99.90;;;;;;4979542;28;37532;-51
2022/05/31 07:08:53;;;;;;;;;;;11.90;99.90;;;;;;4981434;28;38612;-49
2022/05/31 07:11:20;;;;;;;;;;;11.90;99.90;;;;;;4982643;28;38753;-48
2022/05/31 07:13:47;;;;;;;;;;;11.90;99.90;;;;;;4982571;28;36244;-51
2022/05/31 07:16:14;;;;;;;;;;;12.00;99.90;;;;;;4984287;28;37489;-49
2022/05/31 07:18:43;;;;;;;;;;;12.00;99.90;;;;;;4984032;28;35018;-51
2022/05/31 07:21:10;;;;;;;;;;;12.00;99.90;;;;;;4983038;28;38842;-51
2022/05/31 07:23:40;;;;;;;;;;;12.10;99.90;;;;;;4982878;28;38188;-52
2022/05/31 07:26:08;;;;;;;;;;;12.10;99.90;;;;;;4982348;28;35573;-51
2022/05/31 07:28:35;;;;;;;;;;;12.30;99.90;;;;;;4984474;28;36416;-49
2022/05/31 07:31:02;;;;;;;;;;;12.50;99.90;;;;;;4983259;28;37248;-52
2022/05/31 07:33:29;;;;;;;;;;;12.80;99.90;;;;;;4982670;28;37634;-48
2022/05/31 07:35:57;;;;;;;;;;;13.00;99.90;;;;;;4981254;28;37049;-49
2022/05/31 07:38:26;;;;;;;;;;;13.10;99.90;;;;;;4982951;28;36361;-51
2022/05/31 07:40:54;;;;;;;;;;;13.20;99.90;;;;;;4982484;28;37537;-51
2022/05/31 07:43:21;;;;;;;;;;;13.20;99.90;;;;;;4981574;28;38062;-50
2022/05/31 07:45:48;;;;;;;;;;;13.20;99.90;;;;;;4982902;28;36790;-51
2022/05/31 07:48:15;;;;;;;;;;;13.20;99.90;;;;;;4983536;28;37127;-47
2022/05/31 07:50:42;;;;;;;;;;;13.10;99.90;;;;;;4983374;28;38423;-50
2022/05/31 07:53:10;;;;;;;;;;;13.10;99.90;;;;;;4980715;28;37345;-51
2022/05/31 07:55:37;;;;;;;;;;;13.20;99.90;;;;;;4982499;28;35284;-51
2022/05/31 08:00:50;;;;;;;;;;;13.60;99.90;;;;;;4983605;28;38722;-49
2022/05/31 08:03:17;;;;;;;;;;;13.90;99.90;;;;;;4983159;28;37560;-48
2022/05/31 08:05:44;;;;;;;;;;;14.00;99.90;;;;;;4983342;28;37174;-49
2022/05/31 08:08:12;;;;;;;;;;;14.10;99.90;;;;;;4983657;28;36966;-51
2022/05/31 08:10:40;;;;;;;;;;;14.30;99.90;;;;;;4982278;28;38269;-47
2022/05/31 08:13:07;;;;;;;;;;;14.40;99.90;;;;;;4983027;28;38554;-49
2022/05/31 08:15:34;;;;;;;;;;;14.40;99.90;;;;;;4984260;28;36192;-48
2022/05/31 08:18:01;;;;;;;;;;;14.40;99.90;;;;;;4982416;28;37727;-51
2022/05/31 08:20:28;;;;;;;;;;;14.50;99.90;;;;;;4983577;28;37952;-50
2022/05/31 08:22:55;;;;;;;;;;;14.50;99.90;;;;;;4983045;28;38906;-50
2022/05/31 08:25:24;;;;;;;;;;;14.50;99.90;;;;;;4981394;28;35602;-52
2022/05/31 08:27:51;;;;;;;;;;;14.50;99.90;;;;;;4983099;28;37866;-48
2022/05/31 08:30:18;;;;;;;;;;;14.50;99.90;;;;;;4982876;28;37501;-49
2022/05/31 08:32:45;;;;;;;;;;;14.50;99.90;;;;;;4982248;28;36311;-50
2022/05/31 08:35:12;;;;;;;;;;;14.50;99.80;;;;;;4982796;28;36705;-48
2022/05/31 08:37:39;;;;;;;;;;;14.50;99.90;;;;;;4982340;28;36437;-50
2022/05/31 08:40:07;;;;;;;;;;;14.50;99.90;;;;;;4978497;28;37590;-49
2022/05/31 08:42:40;;;;;;;;;;;14.50;99.00;;;;;;4980693;28;38327;-52
2022/05/31 08:45:12;;;;;;;;;;;14.60;98.90;;;;;;4982165;28;37002;-50
2022/05/31 08:47:42;;;;;;;;;;;14.60;99.60;;;;;;4980828;28;35919;-49
2022/05/31 08:53:00;;;;;;;;;;;14.60;98.60;;;;;;4960230;28;38173;-52
2022/05/31 08:58:18;;;;;;;;;;;14.70;99.10;;;;;;4981263;28;37262;-48
2022/05/31 09:00:46;;;;;;;;;;;14.70;98.60;;;;;;4981272;28;37587;-46
2022/05/31 09:03:16;;;;;;;;;;;14.80;98.20;;;;;;4981094;28;38565;-51
2022/05/31 09:05:47;;;;;;;;;;;15.10;99.30;;;;;;4982532;28;36394;-51
2022/05/31 09:08:16;;;;;;;;;;;15.40;98.80;;;;;;4982258;28;36201;-48
2022/05/31 09:10:46;;;;;;;;;;;15.60;96.60;;;;;;4981728;28;37061;-49
2022/05/31 09:13:17;;;;;;;;;;;15.80;95.80;;;;;;4983226;28;38446;-50
2022/05/31 09:15:46;;;;;;;;;;;15.90;96.70;;;;;;4982234;28;37572;-51
2022/05/31 09:18:17;;;;;;;;;;;16.00;95.60;;;;;;4982325;28;36640;-51
2022/05/31 09:20:46;;;;;;;;;;;16.20;94.50;;;;;;4982766;28;37639;-51
2022/05/31 09:23:15;;;;;;;;;;;16.30;92.90;;;;;;4982280;28;37759;-47
2022/05/31 09:25:42;;;;;;;;;;;16.30;93.30;;;;;;4981270;28;37443;-50
2022/05/31 09:28:19;;;;;;;;;;;16.40;93.50;;;;;;4982466;28;36844;-48
2022/05/31 09:30:48;;;;;;;;;;;16.60;92.90;;;;;;4982773;28;37197;-48
2022/05/31 09:33:20;;;;;;;;;;;16.70;94.10;;;;;;4982406;28;37381;-50
2022/05/31 09:35:51;;;;;;;;;;;16.80;94.10;;;;;;4981521;28;38274;-48
2022/05/31 09:38:38;;;;;;;;;;;16.90;92.20;;;;;;4982842;28;35063;-49
2022/05/31 09:41:09;;;;;;;;;;;16.90;90.90;;;;;;4982233;28;40592;-54
2022/05/31 09:43:40;;;;;;;;;;;16.90;91.80;;;;;;4982121;28;38541;-50
2022/05/31 09:46:10;;;;;;;;;;;16.90;91.50;;;;;;4981008;28;38659;-46
2022/05/31 09:48:43;;;;;;;;;;;16.70;92.30;;;;;;4980448;28;35125;-49
2022/05/31 09:51:14;;;;;;;;;;;16.60;91.30;;;;;;4982160;28;39003;-48
2022/05/31 09:59:13;;;;;;;;;;;16.30;90.70;;;;;;4980591;28;37488;-51
2022/05/31 10:01:45;;;;;;;;;;;16.20;91.70;;;;;;4980649;28;37713;-51
2022/05/31 10:04:13;;;;;;;;;;;16.10;92.70;;;;;;4980449;28;40065;-47
2022/05/31 10:06:55;;;;;;;;;;;16.00;93.80;;;;;;4980108;28;37058;-48
2022/05/31 10:09:24;;;;;;;;;;;16.00;92.30;;;;;;4981629;28;36450;-49
2022/05/31 10:12:03;;;;;;;;;;;16.00;92.90;;;;;;4981153;28;38268;-50
2022/05/31 10:14:32;;;;;;;;;;;16.00;91.40;;;;;;4982312;28;37787;-48
2022/05/31 10:17:14;;;;;;;;;;;16.10;91.50;;;;;;4980172;28;37516;-49
2022/05/31 10:19:41;;;;;;;;;;;16.10;90.70;;;;;;4981433;28;35077;-51
2022/05/31 10:22:15;;;;;;;;;;;16.20;89.80;;;;;;4981146;28;38519;-51
2022/05/31 10:24:42;;;;;;;;;;;16.20;88.20;;;;;;4981126;28;38069;-49
2022/05/31 10:27:11;;;;;;;;;;;16.20;91.50;;;;;;4981637;28;35573;-51
2022/05/31 10:29:41;;;;;;;;;;;16.20;90.80;;;;;;4980095;28;38070;-50
2022/05/31 10:32:32;;;;;;;;;;;16.40;91.30;;;;;;4980579;28;37540;-50
2022/05/31 10:35:09;;;;;;;;;;;16.50;88.80;;;;;;4964395;28;36837;-52
2022/05/31 10:37:36;;;;;;;;;;;16.40;87.10;;;;;;4979630;28;38150;-51
2022/05/31 10:40:05;;;;;;;;;;;16.40;90.70;;;;;;4978512;28;36505;-50
2022/05/31 10:42:34;;;;;;;;;;;16.50;91.30;;;;;;4977498;28;37662;-47
2022/05/31 10:45:04;;;;;;;;;;;16.60;89.70;;;;;;4975523;28;38007;-52
2022/05/31 10:47:31;;;;;;;;;;;16.60;84.10;;;;;;4979796;28;38031;-49
2022/05/31 10:49:58;;;;;;;;;;;16.60;83.60;;;;;;4979316;28;35043;-49
2022/05/31 10:52:31;;;;;;;;;;;16.60;86.70;;;;;;4980462;28;36543;-50
2022/05/31 10:55:17;;;;;;;;;;;16.60;87.00;;;;;;4979068;28;36971;-51
2022/05/31 10:57:58;;;;;;;;;;;16.60;85.20;;;;;;4978357;28;37798;-51
2022/05/31 11:00:29;;;;;;;;;;;16.60;86.40;;;;;;4981049;28;37268;-50
2022/05/31 11:03:14;;;;;;;;;;;16.60;88.00;;;;;;4981033;28;38285;-51
2022/05/31 11:05:52;;;;;;;;;;;16.50;84.10;;;;;;4981080;28;37065;-48
2022/05/31 11:11:30;;;;;;;;;;;16.30;81.50;;;;;;4980298;28;38758;-51
2022/05/31 11:14:07;;;;;;;;;;;16.20;85.20;;;;;;4979445;28;38713;-49
2022/05/31 11:16:39;;;;;;;;;;;16.20;82.40;;;;;;4979922;28;38737;-51
2022/05/31 11:19:15;;;;;;;;;;;16.10;84.50;;;;;;4980139;28;37229;-48
2022/05/31 11:21:47;;;;;;;;;;;16.10;85.60;;;;;;4979818;28;36653;-53
2022/05/31 11:24:22;;;;;;;;;;;16.10;85.60;;;;;;4979007;28;37396;-50
2022/05/31 11:26:54;;;;;;;;;;;16.10;80.30;;;;;;4979999;28;37241;-50
2022/05/31 11:29:33;;;;;;;;;;;16.00;82.90;;;;;;4979401;28;37420;-54
2022/05/31 11:32:04;;;;;;;;;;;16.00;79.80;;;;;;4978139;28;36716;-49
2022/05/31 11:34:39;;;;;;;;;;;16.10;80.50;;;;;;4981937;28;38299;-49
2022/05/31 11:37:21;;;;;;;;;;;16.20;82.40;;;;;;4982208;28;36261;-50
2022/05/31 11:39:57;;;;;;;;;;;16.20;85.40;;;;;;4982476;28;35948;-52
2022/05/31 11:42:32;;;;;;;;;;;16.30;85.80;;;;;;4983176;28;36505;-49
2022/05/31 11:45:03;;;;;;;;;;;16.30;84.90;;;;;;4981617;28;37088;-52
2022/05/31 11:47:44;;;;;;;;;;;16.30;80.20;;;;;;4983083;28;38310;-52
2022/05/31 11:50:16;;;;;;;;;;;16.40;78.20;;;;;;4982796;28;37305;-51
2022/05/31 11:52:49;;;;;;;;;;;16.40;79.00;;;;;;4983066;28;36325;-52
2022/05/31 11:55:29;;;;;;;;;;;16.50;84.10;;;;;;4981408;28;37056;-53
2022/05/31 11:58:02;;;;;;;;;;;16.60;80.10;;;;;;4982006;28;36272;-51
2022/05/31 12:00:36;;;;;;;;;;;16.60;81.80;;;;;;4981543;28;35588;-50
2022/05/31 12:03:07;;;;;;;;;;;16.60;79.10;;;;;;4982336;28;37301;-51
2022/05/31 12:05:37;;;;;;;;;;;16.60;77.80;;;;;;4980918;28;37802;-53
2022/05/31 12:08:07;;;;;;;;;;;16.60;81.90;;;;;;4981921;28;37075;-52
2022/05/31 12:10:40;;;;;;;;;;;16.40;78.50;;;;;;4982774;28;37476;-53
2022/05/31 12:13:10;;;;;;;;;;;16.40;75.30;;;;;;4983398;28;34551;-52
2022/05/31 12:15:39;;;;;;;;;;;16.30;79.50;;;;;;4982554;28;38522;-51
2022/05/31 12:18:09;;;;;;;;;;;16.20;79.40;;;;;;4982425;28;38126;-53
2022/05/31 12:20:38;;;;;;;;;;;16.20;80.40;;;;;;4982939;28;38501;-52
2022/05/31 12:23:09;;;;;;;;;;;16.10;80.40;;;;;;4982028;28;37888;-52
2022/05/31 12:25:42;;;;;;;;;;;16.00;81.10;;;;;;4982017;28;39098;-51
2022/05/31 12:28:12;;;;;;;;;;;15.90;82.60;;;;;;4983541;28;38583;-51
2022/05/31 12:30:46;;;;;;;;;;;15.90;80.00;;;;;;4984323;28;37459;-52
2022/05/31 12:33:27;;;;;;;;;;;15.80;80.90;;;;;;4983824;28;35152;-53
2022/05/31 12:35:56;;;;;;;;;;;15.80;80.10;;;;;;4983930;28;38093;-52
2022/05/31 12:38:23;;;;;;;;;;;15.70;80.40;;;;;;4982578;28;38493;-53
2022/05/31 12:40:52;;;;;;;;;;;15.70;80.80;;;;;;4982378;28;36501;-54
2022/05/31 12:43:38;;;;;;;;;;;15.70;81.50;;;;;;4983131;28;34959;-54
2022/05/31 12:46:20;;;;;;;;;;;15.60;79.70;;;;;;4983404;28;40199;-54
2022/05/31 12:48:55;;;;;;;;;;;15.60;83.60;;;;;;4983283;28;37399;-55
2022/05/31 12:51:24;;;;;;;;;;;15.60;85.50;;;;;;4983857;28;37021;-53
2022/05/31 12:54:03;;;;;;;;;;;15.50;85.80;;;;;;4983879;28;36941;-53
2022/05/31 12:56:54;;;;;;;;;;;15.50;87.30;;;;;;4982665;28;36446;-52
2022/05/31 12:59:36;;;;;;;;;;;15.50;87.70;;;;;;4981140;28;40293;-53
2022/05/31 13:02:03;;;;;;;;;;;15.50;88.00;;;;;;4983319;28;36323;-52
2022/05/31 13:04:32;;;;;;;;;;;15.50;87.60;;;;;;4977646;28;37398;-50
2022/05/31 13:07:08;;;;;;;;;;;15.50;85.80;;;;;;4977615;28;37946;-51
2022/05/31 13:09:38;;;;;;;;;;;15.50;86.50;;;;;;4981262;28;38532;-52
2022/05/31 13:20:28;;;;;;;;;;;15.70;83.60;;;;;;4982670;28;38536;-52
2022/05/31 13:22:58;;;;;;;;;;;15.60;82.80;;;;;;4983111;28;35761;-52
2022/05/31 13:25:28;;;;;;;;;;;15.70;83.20;;;;;;4982871;28;36861;-51
2022/05/31 13:27:57;;;;;;;;;;;15.70;82.20;;;;;;4982699;28;36342;-52
2022/05/31 13:30:25;;;;;;;;;;;15.70;79.90;;;;;;4983487;28;38929;-55
2022/05/31 13:32:52;;;;;;;;;;;15.80;78.80;;;;;;4983085;28;36882;-55
2022/05/31 13:35:22;;;;;;;;;;;15.80;77.60;;;;;;4981960;28;37688;-55
2022/05/31 13:37:52;;;;;;;;;;;15.80;79.50;;;;;;4982621;28;39415;-55
2022/05/31 13:40:20;;;;;;;;;;;15.80;80.80;;;;;;4982472;28;39243;-55
2022/05/31 13:42:47;;;;;;;;;;;15.80;81.90;;;;;;4982262;28;37652;-55
2022/05/31 13:45:19;;;;;;;;;;;15.90;83.40;;;;;;4980721;28;37068;-55
2022/05/31 13:47:48;;;;;;;;;;;15.90;82.30;;;;;;4981917;28;37610;-56
2022/05/31 13:50:18;;;;;;;;;;;15.80;82.30;;;;;;4981504;28;38925;-56
2022/05/31 13:52:48;;;;;;;;;;;15.80;82.20;;;;;;4981460;28;39477;-54
2022/05/31 13:55:19;;;;;;;;;;;15.80;82.20;;;;;;4980993;28;36525;-56
2022/05/31 13:57:50;;;;;;;;;;;15.80;83.70;;;;;;4981062;28;36463;-55
2022/05/31 14:00:32;;;;;;;;;;;15.80;85.10;;;;;;4979815;28;35589;-53
2022/05/31 14:03:06;;;;;;;;;;;15.80;85.10;;;;;;4980627;28;37902;-55
2022/05/31 14:05:35;;;;;;;;;;;15.80;85.20;;;;;;4982056;28;35104;-55
2022/05/31 14:08:02;;;;;;;;;;;15.80;87.10;;;;;;4981857;28;38444;-55
2022/05/31 14:10:32;;;;;;;;;;;15.80;86.50;;;;;;4981467;28;37297;-55
2022/05/31 14:13:00;;;;;;;;;;;15.80;87.20;;;;;;4981720;28;37699;-55
2022/05/31 14:15:29;;;;;;;;;;;15.80;87.60;;;;;;4981828;28;36501;-55
2022/05/31 14:18:06;;;;;;;;;;;15.80;85.80;;;;;;4982878;28;39242;-55
2022/05/31 14:20:34;;;;;;;;;;;15.80;88.60;;;;;;4981329;28;37530;-55
2022/05/31 14:23:03;;;;;;;;;;;15.90;89.30;;;;;;4982516;28;34978;-56
2022/05/31 14:25:31;;;;;;;;;;;15.90;90.50;;;;;;4982078;28;37205;-55
2022/05/31 14:27:58;;;;;;;;;;;15.90;88.90;;;;;;4982651;28;36487;-55
2022/05/31 14:30:29;;;;;;;;;;;15.90;89.10;;;;;;4982678;28;37525;-55
2022/05/31 14:33:00;;;;;;;;;;;16.00;90.10;;;;;;4981568;28;37400;-56
2022/05/31 14:35:31;;;;;;;;;;;16.10;90.80;;;;;;4982812;28;36440;-55
2022/05/31 14:37:58;;;;;;;;;;;16.10;90.60;;;;;;4982053;28;36602;-53
2022/05/31 14:40:27;;;;;;;;;;;16.20;90.60;;;;;;4982102;28;39006;-55
2022/05/31 14:42:56;;;;;;;;;;;16.20;89.20;;;;;;4981895;28;37361;-49
2022/05/31 14:45:27;;;;;;;;;;;16.20;90.90;;;;;;4982588;28;36591;-50
2022/05/31 14:47:54;;;;;;;;;;;16.20;90.30;;;;;;4981547;28;38232;-51
2022/05/31 14:50:26;;;;;;;;;;;16.20;89.70;;;;;;4981818;28;38403;-52
2022/05/31 14:52:56;;;;;;;;;;;16.30;90.50;;;;;;4982859;28;36537;-51
2022/05/31 14:55:31;;;;;;;;;;;16.20;89.00;;;;;;4981541;28;36186;-48
2022/05/31 15:00:46;;;;;;;;;;;16.20;89.30;;;;;;4981258;28;39739;-50
2022/05/31 15:03:23;;;;;;;;;;;16.20;88.90;;;;;;4982757;28;39142;-49
2022/05/31 15:05:56;;;;;;;;;;;16.20;88.10;;;;;;4981534;28;36461;-50
2022/05/31 15:08:34;;;;;;;;;;;16.20;89.10;;;;;;4983780;28;37417;-52
2022/05/31 15:19:30;;;;;;;;;;;16.20;89.10;;;;;;4985341;28;38780;-51